| Date | Time | Temp. (oF) | Dew Point (oF) | Rel. Hum. (%) | Press. (in.) | Wind Dir. | Wind Speed (mph) | Hourly Rainfall (in.) |
|
|---|---|---|---|---|---|---|---|---|---|
| 1 | 11/05 | 00:00 | 44 | 40 | 88 | 29.47 | W | 2 | 0.00 |
| 2 | 11/04 | 23:00 | 45 | 38 | 78 | 29.51 | WNW | 7 | 0.00 |
| 3 | 11/04 | 22:00 | 45 | 37 | 74 | 29.51 | NNW | 6 | 0.00 |
| 4 | 11/04 | 21:00 | 45 | 36 | 72 | 29.50 | N | 7 | 0.00 |
| 5 | 11/04 | 20:00 | 45 | 36 | 71 | 29.51 | N | 2 | 0.00 |
| 6 | 11/04 | 19:00 | 45 | 36 | 72 | 29.53 | NNE | 4 | 0.01 |
| 7 | 11/04 | 18:00 | 46 | 36 | 70 | 29.51 | NNW | 3 | 0.02 |
| 8 | 11/04 | 17:00 | 46 | 37 | 71 | 29.52 | NNE | 3 | 0.05 |
| 9 | 11/04 | 16:00 | 46 | 38 | 74 | 29.52 | NNE | 4 | 0.05 |
| 10 | 11/04 | 15:00 | 46 | 37 | 73 | 29.53 | NE | 4 | 0.08 |
| 11 | 11/04 | 14:00 | 46 | 37 | 71 | 29.53 | ENE | 12 | 0.07 |
| 12 | 11/04 | 13:00 | 46 | 36 | 69 | 29.58 | NE | 6 | 0.16 |
| 13 | 11/04 | 12:00 | 46 | 36 | 68 | 29.61 | NNE | 5 | 0.14 |
| 14 | 11/04 | 11:00 | 45 | 35 | 70 | 29.63 | NNE | 7 | 0.14 |
| 15 | 11/04 | 10:00 | 45 | 34 | 67 | 29.66 | NE | 6 | 0.12 |
| 16 | 11/04 | 09:00 | 45 | 35 | 68 | 29.68 | NNE | 5 | 0.07 |
| 17 | 11/04 | 08:00 | 44 | 35 | 71 | 29.70 | ENE | 4 | 0.03 |
| 18 | 11/04 | 07:00 | 45 | 36 | 73 | 29.71 | E | 5 | 0.03 |
| 19 | 11/04 | 06:00 | 45 | 38 | 77 | 29.76 | ENE | 2 | 0.07 |
| 20 | 11/04 | 05:00 | 44 | 38 | 80 | 29.78 | SE | 1 | 0.03 |
| 21 | 11/04 | 04:00 | 44 | 39 | 85 | 29.80 | NE | 3 | 0.05 |
| 22 | 11/04 | 03:00 | 45 | 42 | 92 | 29.85 | ESE | 2 | 0.02 |
| 23 | 11/04 | 02:00 | 45 | 43 | 95 | 29.89 | ESE | 1 | 0.01 |
| 24 | 11/04 | 01:00 | 46 | 45 | 97 | 29.91 | ENE | 2 | 0.00 |